SJV7543 WARR-WIII
Flight info
| Callsign | SJV7543 |
|---|---|
| Flight time | 1h 0m |
| Altitude | 36000 |
| Route | LASEM T2 KALUT T6 KURUS |
| Aircraft | A320/M-SDE3FGHIRWY/LB1 |
Departure
| Time | 2026-04-30 11:22 |
|---|---|
| Airport | Juanda International Airport (WARR) |
Arrival
| Time | 2026-04-30 12:22 |
|---|---|
| Airport | Soekarno-Hatta International Airport (WIII) |
| Time | Latitude | Longitude | Altitude | Speed | Heading |
|---|---|---|---|---|---|
| 2026-04-30 11:01 | -7.37550 | 112.79240 | 9 ft | 0 kts | 9° |
| 2026-04-30 11:13 | -7.37556 | 112.79239 | 9 ft | 2 kts | 11° |
| 2026-04-30 11:13 | -7.37571 | 112.79235 | 11 ft | 2 kts | 14° |
| 2026-04-30 11:13 | -7.37587 | 112.79231 | 10 ft | 2 kts | 20° |
| 2026-04-30 11:13 | -7.37603 | 112.79225 | 12 ft | 2 kts | 28° |
| 2026-04-30 11:14 | -7.37617 | 112.79216 | 11 ft | 2 kts | 41° |
| 2026-04-30 11:14 | -7.37628 | 112.79204 | 11 ft | 2 kts | 63° |
| 2026-04-30 11:14 | -7.37634 | 112.79188 | 10 ft | 2 kts | 86° |
| 2026-04-30 11:14 | -7.37634 | 112.79175 | 12 ft | 1 kts | 98° |
| 2026-04-30 11:15 | -7.37634 | 112.79173 | 12 ft | 0 kts | 98° |
| 2026-04-30 11:16 | -7.37635 | 112.79184 | 11 ft | 3 kts | 98° |
| 2026-04-30 11:16 | -7.37640 | 112.79214 | 10 ft | 6 kts | 98° |
| 2026-04-30 11:16 | -7.37647 | 112.79262 | 9 ft | 8 kts | 98° |
| 2026-04-30 11:17 | -7.37657 | 112.79328 | 9 ft | 11 kts | 99° |
| 2026-04-30 11:17 | -7.37671 | 112.79410 | 9 ft | 13 kts | 99° |
| 2026-04-30 11:17 | -7.37709 | 112.79448 | 9 ft | 9 kts | 178° |
| 2026-04-30 11:17 | -7.37777 | 112.79437 | 10 ft | 11 kts | 189° |
| 2026-04-30 11:18 | -7.37862 | 112.79423 | 9 ft | 14 kts | 189° |
| 2026-04-30 11:18 | -7.37952 | 112.79583 | 11 ft | 18 kts | 99° |
| 2026-04-30 11:18 | -7.37974 | 112.79717 | 9 ft | 21 kts | 99° |
| 2026-04-30 11:19 | -7.37995 | 112.79849 | 9 ft | 20 kts | 98° |
| 2026-04-30 11:19 | -7.38015 | 112.79974 | 9 ft | 11 kts | 100° |
| 2026-04-30 11:19 | -7.38059 | 112.80039 | 9 ft | 13 kts | 158° |
| 2026-04-30 11:19 | -7.38103 | 112.80038 | 8 ft | 0 kts | 190° |
| 2026-04-30 11:20 | -7.38111 | 112.80036 | 8 ft | 3 kts | 190° |
| 2026-04-30 11:21 | -7.38144 | 112.80030 | 7 ft | 7 kts | 190° |
| 2026-04-30 11:21 | -7.38192 | 112.80008 | 7 ft | 9 kts | 245° |
| 2026-04-30 11:21 | -7.38184 | 112.79933 | 7 ft | 17 kts | 279° |
| 2026-04-30 11:21 | -7.38129 | 112.79592 | 9 ft | 85 kts | 279° |
| 2026-04-30 11:22 | -7.38000 | 112.78793 | 10 ft | 142 kts | 279° |
| 2026-04-30 11:22 | -7.37829 | 112.77710 | 271 ft | 162 kts | 278° |
| 2026-04-30 11:22 | -7.37654 | 112.76579 | 879 ft | 163 kts | 278° |
| 2026-04-30 11:22 | -7.37467 | 112.75440 | 1424 ft | 167 kts | 279° |
| 2026-04-30 11:23 | -7.37264 | 112.74209 | 1696 ft | 189 kts | 279° |
| 2026-04-30 11:23 | -7.37037 | 112.72833 | 1969 ft | 212 kts | 279° |
| 2026-04-30 11:23 | -7.36499 | 112.69539 | 2661 ft | 262 kts | 279° |
| 2026-04-30 11:24 | -7.36199 | 112.67693 | 3353 ft | 273 kts | 279° |
| 2026-04-30 11:24 | -7.35888 | 112.65786 | 4211 ft | 278 kts | 279° |
| 2026-04-30 11:24 | -7.35570 | 112.63844 | 5107 ft | 282 kts | 279° |
| 2026-04-30 11:25 | -7.34929 | 112.59921 | 6789 ft | 289 kts | 279° |
| 2026-04-30 11:25 | -7.34599 | 112.57906 | 7593 ft | 292 kts | 279° |
| 2026-04-30 11:25 | -7.33736 | 112.53871 | 9136 ft | 299 kts | 292° |
| 2026-04-30 11:26 | -7.31484 | 112.50239 | 10261 ft | 321 kts | 306° |
| 2026-04-30 11:26 | -7.30172 | 112.48353 | 10421 ft | 343 kts | 306° |
| 2026-04-30 11:26 | -7.28761 | 112.46315 | 10700 ft | 359 kts | 305° |
| 2026-04-30 11:27 | -7.27322 | 112.44229 | 11249 ft | 364 kts | 305° |
| 2026-04-30 11:27 | -7.25878 | 112.42134 | 11845 ft | 368 kts | 305° |
| 2026-04-30 11:27 | -7.24406 | 112.39998 | 12450 ft | 372 kts | 305° |
| 2026-04-30 11:27 | -7.22915 | 112.37837 | 13068 ft | 376 kts | 305° |
| 2026-04-30 11:28 | -7.19696 | 112.33646 | 14168 ft | 382 kts | 317° |
| 2026-04-30 11:28 | -7.17670 | 112.31893 | 14700 ft | 385 kts | 321° |
| 2026-04-30 11:28 | -7.15616 | 112.30181 | 15217 ft | 388 kts | 321° |
| 2026-04-30 11:29 | -7.13529 | 112.28439 | 15754 ft | 391 kts | 321° |
| 2026-04-30 11:29 | -7.11417 | 112.26673 | 16287 ft | 394 kts | 321° |
| 2026-04-30 11:29 | -7.07181 | 112.23130 | 17343 ft | 400 kts | 322° |
| 2026-04-30 11:30 | -7.02864 | 112.19523 | 18371 ft | 407 kts | 322° |
| 2026-04-30 11:30 | -7.00668 | 112.17687 | 18845 ft | 410 kts | 321° |
| 2026-04-30 11:30 | -6.98467 | 112.15845 | 19325 ft | 413 kts | 321° |
| 2026-04-30 11:31 | -6.96373 | 112.13882 | 19798 ft | 417 kts | 313° |
| 2026-04-30 11:31 | -6.94600 | 112.11543 | 20281 ft | 421 kts | 304° |
| 2026-04-30 11:31 | -6.93014 | 112.09097 | 20757 ft | 424 kts | 304° |
| 2026-04-30 11:31 | -6.91384 | 112.06599 | 21234 ft | 427 kts | 304° |
| 2026-04-30 11:32 | -6.89742 | 112.04093 | 21689 ft | 430 kts | 304° |
| 2026-04-30 11:32 | -6.88081 | 112.01558 | 22136 ft | 432 kts | 304° |
| 2026-04-30 11:32 | -6.86443 | 111.99055 | 22551 ft | 435 kts | 304° |
| 2026-04-30 11:33 | -6.83081 | 111.93915 | 23367 ft | 441 kts | 304° |
| 2026-04-30 11:33 | -6.81382 | 111.91323 | 23710 ft | 443 kts | 304° |
| 2026-04-30 11:33 | -6.79694 | 111.88753 | 24039 ft | 445 kts | 304° |
| 2026-04-30 11:33 | -6.77980 | 111.86140 | 24368 ft | 447 kts | 304° |
| 2026-04-30 11:34 | -6.76253 | 111.83505 | 24692 ft | 449 kts | 304° |
| 2026-04-30 11:34 | -6.74546 | 111.80898 | 25007 ft | 451 kts | 304° |
| 2026-04-30 11:34 | -6.72814 | 111.78253 | 25320 ft | 453 kts | 304° |
| 2026-04-30 11:34 | -6.71065 | 111.75582 | 25638 ft | 455 kts | 304° |
| 2026-04-30 11:35 | -6.69318 | 111.72916 | 25944 ft | 457 kts | 304° |
| 2026-04-30 11:35 | -6.67581 | 111.70268 | 26242 ft | 459 kts | 304° |
| 2026-04-30 11:35 | -6.65814 | 111.67577 | 26537 ft | 461 kts | 304° |
| 2026-04-30 11:35 | -6.64034 | 111.64866 | 26822 ft | 463 kts | 304° |
| 2026-04-30 11:36 | -6.62272 | 111.62176 | 27098 ft | 465 kts | 303° |
| 2026-04-30 11:36 | -6.60691 | 111.59328 | 27383 ft | 467 kts | 298° |
| 2026-04-30 11:36 | -6.59183 | 111.56417 | 27665 ft | 469 kts | 298° |
| 2026-04-30 11:36 | -6.57668 | 111.53494 | 27944 ft | 471 kts | 298° |
| 2026-04-30 11:37 | -6.56147 | 111.50558 | 28227 ft | 473 kts | 297° |
| 2026-04-30 11:37 | -6.54644 | 111.47649 | 28501 ft | 475 kts | 298° |
| 2026-04-30 11:37 | -6.53111 | 111.44689 | 28775 ft | 477 kts | 298° |
| 2026-04-30 11:37 | -6.51564 | 111.41713 | 29045 ft | 479 kts | 298° |
| 2026-04-30 11:38 | -6.50025 | 111.38757 | 29352 ft | 480 kts | 298° |
| 2026-04-30 11:38 | -6.48470 | 111.35774 | 29763 ft | 479 kts | 298° |
| 2026-04-30 11:38 | -6.46922 | 111.32799 | 30140 ft | 478 kts | 298° |
| 2026-04-30 11:38 | -6.45397 | 111.29866 | 30483 ft | 477 kts | 298° |
| 2026-04-30 11:39 | -6.43862 | 111.26910 | 30838 ft | 476 kts | 298° |
| 2026-04-30 11:39 | -6.42327 | 111.23948 | 31200 ft | 475 kts | 298° |
| 2026-04-30 11:39 | -6.40816 | 111.21040 | 31568 ft | 474 kts | 298° |
| 2026-04-30 11:39 | -6.39287 | 111.18097 | 31944 ft | 473 kts | 298° |
| 2026-04-30 11:40 | -6.37756 | 111.15157 | 32329 ft | 472 kts | 298° |
| 2026-04-30 11:40 | -6.36230 | 111.12238 | 32721 ft | 471 kts | 298° |
| 2026-04-30 11:40 | -6.34717 | 111.09361 | 33117 ft | 470 kts | 298° |
| 2026-04-30 11:40 | -6.33171 | 111.06460 | 33513 ft | 469 kts | 299° |
| 2026-04-30 11:41 | -6.31617 | 111.03571 | 33920 ft | 467 kts | 299° |
| 2026-04-30 11:41 | -6.30587 | 111.01666 | 34141 ft | 467 kts | 299° |
| 2026-04-30 11:41 | -6.28522 | 110.97860 | 34597 ft | 465 kts | 299° |
| 2026-04-30 11:41 | -6.26976 | 110.95004 | 34935 ft | 464 kts | 299° |
| 2026-04-30 11:42 | -6.25957 | 110.93112 | 35163 ft | 464 kts | 299° |
| 2026-04-30 11:42 | -6.23918 | 110.89310 | 35598 ft | 462 kts | 299° |
| 2026-04-30 11:42 | -6.22393 | 110.86464 | 35843 ft | 462 kts | 299° |
| 2026-04-30 11:42 | -6.21378 | 110.84574 | 35887 ft | 463 kts | 299° |
| 2026-04-30 11:43 | -6.17790 | 110.77896 | 35906 ft | 467 kts | 299° |
| 2026-04-30 11:43 | -6.15215 | 110.73107 | 35909 ft | 467 kts | 299° |
| 2026-04-30 11:44 | -6.12117 | 110.67348 | 35910 ft | 467 kts | 299° |
| 2026-04-30 11:44 | -6.09020 | 110.61596 | 35910 ft | 467 kts | 299° |
| 2026-04-30 11:45 | -6.05947 | 110.55870 | 35909 ft | 467 kts | 299° |
| 2026-04-30 11:45 | -6.02854 | 110.50109 | 35912 ft | 467 kts | 299° |
| 2026-04-30 11:46 | -5.99758 | 110.44371 | 35920 ft | 468 kts | 299° |
| 2026-04-30 11:46 | -5.97170 | 110.38408 | 35924 ft | 469 kts | 285° |
| 2026-04-30 11:47 | -5.96491 | 110.31927 | 35919 ft | 470 kts | 270° |
| 2026-04-30 11:47 | -5.96514 | 110.25338 | 35919 ft | 470 kts | 270° |
| 2026-04-30 11:48 | -5.96512 | 110.18781 | 35920 ft | 471 kts | 270° |
| 2026-04-30 11:48 | -5.96502 | 110.12218 | 35922 ft | 471 kts | 270° |
| 2026-04-30 11:49 | -5.96503 | 110.05616 | 35923 ft | 471 kts | 270° |
| 2026-04-30 11:49 | -5.96504 | 109.99063 | 35922 ft | 472 kts | 271° |
| 2026-04-30 11:50 | -5.96495 | 109.92450 | 35920 ft | 472 kts | 271° |
| 2026-04-30 11:50 | -5.96486 | 109.85876 | 35924 ft | 472 kts | 271° |
| 2026-04-30 11:51 | -5.96485 | 109.79256 | 35929 ft | 473 kts | 271° |
| 2026-04-30 11:51 | -5.96481 | 109.72683 | 35929 ft | 473 kts | 271° |
| 2026-04-30 11:52 | -5.96478 | 109.66050 | 35929 ft | 473 kts | 271° |
| 2026-04-30 11:52 | -5.96463 | 109.59473 | 35932 ft | 473 kts | 271° |
| 2026-04-30 11:53 | -5.96450 | 109.52828 | 35930 ft | 473 kts | 271° |
| 2026-04-30 11:53 | -5.96438 | 109.46237 | 35934 ft | 474 kts | 271° |
| 2026-04-30 11:54 | -5.96434 | 109.39641 | 35933 ft | 473 kts | 271° |
| 2026-04-30 11:54 | -5.96437 | 109.33014 | 35930 ft | 473 kts | 271° |
| 2026-04-30 11:55 | -5.96428 | 109.26394 | 35928 ft | 473 kts | 271° |
| 2026-04-30 11:55 | -5.96407 | 109.19807 | 35929 ft | 473 kts | 271° |
| 2026-04-30 11:56 | -5.96390 | 109.13173 | 35928 ft | 473 kts | 271° |
| 2026-04-30 11:56 | -5.96375 | 109.06587 | 35924 ft | 473 kts | 271° |
| 2026-04-30 11:57 | -5.96359 | 108.99951 | 35929 ft | 473 kts | 271° |
| 2026-04-30 11:57 | -5.96344 | 108.93363 | 35928 ft | 473 kts | 271° |
| 2026-04-30 11:58 | -5.96332 | 108.86766 | 35929 ft | 473 kts | 271° |
| 2026-04-30 11:58 | -5.96313 | 108.80149 | 35928 ft | 473 kts | 271° |
| 2026-04-30 11:59 | -5.96293 | 108.73566 | 35926 ft | 473 kts | 271° |
| 2026-04-30 11:59 | -5.96277 | 108.66926 | 35929 ft | 473 kts | 271° |
| 2026-04-30 12:00 | -5.96258 | 108.60348 | 35930 ft | 473 kts | 271° |
| 2026-04-30 12:00 | -5.96244 | 108.53859 | 35930 ft | 473 kts | 271° |
| 2026-04-30 12:01 | -5.96223 | 108.47215 | 35933 ft | 473 kts | 271° |
| 2026-04-30 12:01 | -5.96208 | 108.40633 | 35928 ft | 473 kts | 270° |
| 2026-04-30 12:02 | -5.96204 | 108.34007 | 35931 ft | 474 kts | 270° |
| 2026-04-30 12:02 | -5.96206 | 108.30726 | 35678 ft | 473 kts | 270° |
| 2026-04-30 12:02 | -5.96206 | 108.27382 | 34641 ft | 482 kts | 270° |
| 2026-04-30 12:03 | -5.96203 | 108.23973 | 33646 ft | 487 kts | 270° |
| 2026-04-30 12:03 | -5.96195 | 108.17147 | 31574 ft | 493 kts | 270° |
| 2026-04-30 12:03 | -5.96190 | 108.13668 | 30519 ft | 496 kts | 270° |
| 2026-04-30 12:04 | -5.96185 | 108.10231 | 29405 ft | 499 kts | 270° |
| 2026-04-30 12:04 | -5.96179 | 108.06742 | 28422 ft | 496 kts | 270° |
| 2026-04-30 12:04 | -5.96170 | 108.03298 | 27984 ft | 484 kts | 270° |
| 2026-04-30 12:04 | -5.96161 | 107.99978 | 27848 ft | 462 kts | 270° |
| 2026-04-30 12:05 | -5.96155 | 107.96863 | 27540 ft | 439 kts | 270° |
| 2026-04-30 12:05 | -5.96153 | 107.93829 | 26871 ft | 427 kts | 270° |
| 2026-04-30 12:05 | -5.96155 | 107.90857 | 26115 ft | 421 kts | 270° |
| 2026-04-30 12:05 | -5.96159 | 107.87965 | 25376 ft | 416 kts | 270° |
| 2026-04-30 12:06 | -5.96161 | 107.85064 | 24648 ft | 412 kts | 270° |
| 2026-04-30 12:06 | -5.96163 | 107.82193 | 23921 ft | 407 kts | 270° |
| 2026-04-30 12:06 | -5.96165 | 107.79353 | 23157 ft | 403 kts | 270° |
| 2026-04-30 12:06 | -5.96167 | 107.76573 | 22325 ft | 399 kts | 270° |
| 2026-04-30 12:07 | -5.96170 | 107.73806 | 21509 ft | 394 kts | 270° |
| 2026-04-30 12:07 | -5.96170 | 107.71062 | 20713 ft | 389 kts | 270° |
| 2026-04-30 12:07 | -5.96167 | 107.68370 | 20047 ft | 382 kts | 270° |
| 2026-04-30 12:07 | -5.96165 | 107.65781 | 19595 ft | 369 kts | 270° |
| 2026-04-30 12:08 | -5.96161 | 107.63224 | 19008 ft | 362 kts | 270° |
| 2026-04-30 12:08 | -5.96159 | 107.60702 | 18376 ft | 357 kts | 270° |
| 2026-04-30 12:08 | -5.96159 | 107.58217 | 17681 ft | 353 kts | 270° |
| 2026-04-30 12:08 | -5.96160 | 107.55763 | 16976 ft | 349 kts | 270° |
| 2026-04-30 12:09 | -5.96164 | 107.53364 | 16310 ft | 345 kts | 270° |
| 2026-04-30 12:09 | -5.96168 | 107.50963 | 15649 ft | 341 kts | 270° |
| 2026-04-30 12:09 | -5.96169 | 107.48580 | 15004 ft | 338 kts | 270° |
| 2026-04-30 12:09 | -5.96167 | 107.46253 | 14388 ft | 334 kts | 270° |
| 2026-04-30 12:10 | -5.96165 | 107.43918 | 13778 ft | 331 kts | 270° |
| 2026-04-30 12:10 | -5.96163 | 107.41607 | 13101 ft | 327 kts | 270° |
| 2026-04-30 12:10 | -5.96163 | 107.39368 | 12463 ft | 323 kts | 269° |
| 2026-04-30 12:10 | -5.96165 | 107.37120 | 11839 ft | 319 kts | 269° |
| 2026-04-30 12:11 | -5.96165 | 107.34930 | 11550 ft | 303 kts | 270° |
| 2026-04-30 12:11 | -5.96164 | 107.32852 | 11187 ft | 293 kts | 269° |
| 2026-04-30 12:11 | -5.96366 | 107.30859 | 10757 ft | 285 kts | 260° |
| 2026-04-30 12:11 | -5.96690 | 107.28910 | 10314 ft | 281 kts | 260° |
| 2026-04-30 12:12 | -5.97015 | 107.26963 | 9868 ft | 285 kts | 259° |
| 2026-04-30 12:12 | -5.97350 | 107.24963 | 9369 ft | 291 kts | 260° |
| 2026-04-30 12:12 | -5.97686 | 107.22954 | 8898 ft | 296 kts | 260° |
| 2026-04-30 12:12 | -5.98031 | 107.20893 | 8416 ft | 300 kts | 260° |
| 2026-04-30 12:13 | -5.98374 | 107.18852 | 8052 ft | 299 kts | 260° |
| 2026-04-30 12:13 | -5.98722 | 107.16778 | 7729 ft | 297 kts | 260° |
| 2026-04-30 12:13 | -5.99064 | 107.14738 | 7374 ft | 292 kts | 260° |
| 2026-04-30 12:13 | -5.99396 | 107.12756 | 6779 ft | 290 kts | 260° |
| 2026-04-30 12:14 | -5.99730 | 107.10769 | 6193 ft | 287 kts | 261° |
| 2026-04-30 12:14 | -6.00059 | 107.08808 | 5627 ft | 283 kts | 261° |
| 2026-04-30 12:14 | -6.00382 | 107.06874 | 5151 ft | 276 kts | 261° |
| 2026-04-30 12:14 | -6.00697 | 107.04988 | 4712 ft | 269 kts | 260° |
| 2026-04-30 12:15 | -6.00995 | 107.03191 | 4606 ft | 257 kts | 261° |
| 2026-04-30 12:15 | -6.01285 | 107.01451 | 4518 ft | 246 kts | 260° |
| 2026-04-30 12:15 | -6.01559 | 106.99814 | 4422 ft | 235 kts | 260° |
| 2026-04-30 12:15 | -6.01823 | 106.98233 | 4323 ft | 225 kts | 260° |
| 2026-04-30 12:16 | -6.02081 | 106.96688 | 4223 ft | 223 kts | 260° |
| 2026-04-30 12:16 | -6.02334 | 106.95146 | 4125 ft | 223 kts | 262° |
| 2026-04-30 12:16 | -6.02656 | 106.93619 | 4032 ft | 223 kts | 252° |
| 2026-04-30 12:16 | -6.03165 | 106.92169 | 4023 ft | 223 kts | 248° |
| 2026-04-30 12:17 | -6.04320 | 106.89270 | 4024 ft | 223 kts | 248° |
| 2026-04-30 12:17 | -6.04902 | 106.87816 | 3999 ft | 224 kts | 248° |
| 2026-04-30 12:17 | -6.05481 | 106.86364 | 3796 ft | 222 kts | 248° |
| 2026-04-30 12:18 | -6.06056 | 106.84924 | 3523 ft | 221 kts | 247° |
| 2026-04-30 12:18 | -6.06620 | 106.83511 | 3255 ft | 220 kts | 247° |
| 2026-04-30 12:18 | -6.07189 | 106.82086 | 2972 ft | 219 kts | 247° |
| 2026-04-30 12:18 | -6.07759 | 106.80657 | 2688 ft | 218 kts | 248° |
| 2026-04-30 12:19 | -6.08319 | 106.79254 | 2416 ft | 219 kts | 248° |
| 2026-04-30 12:19 | -6.08881 | 106.77845 | 2131 ft | 213 kts | 247° |
| 2026-04-30 12:19 | -6.09418 | 106.76497 | 1898 ft | 200 kts | 248° |
| 2026-04-30 12:19 | -6.09919 | 106.75241 | 1624 ft | 188 kts | 248° |
| 2026-04-30 12:20 | -6.10387 | 106.74069 | 1397 ft | 169 kts | 247° |
| 2026-04-30 12:20 | -6.10798 | 106.73039 | 1176 ft | 154 kts | 248° |
| 2026-04-30 12:20 | -6.11189 | 106.72058 | 984 ft | 149 kts | 247° |
| 2026-04-30 12:20 | -6.11570 | 106.71103 | 806 ft | 149 kts | 246° |
| 2026-04-30 12:21 | -6.11951 | 106.70147 | 635 ft | 147 kts | 246° |
| 2026-04-30 12:21 | -6.12333 | 106.69191 | 431 ft | 145 kts | 244° |
| 2026-04-30 12:21 | -6.12707 | 106.68251 | 239 ft | 146 kts | 245° |
| 2026-04-30 12:21 | -6.13079 | 106.67311 | 68 ft | 146 kts | 246° |
| 2026-04-30 12:22 | -6.13424 | 106.66462 | 42 ft | 107 kts | 249° |
| 2026-04-30 12:22 | -6.13635 | 106.65922 | 40 ft | 65 kts | 249° |
| 2026-04-30 12:22 | -6.13788 | 106.65534 | 38 ft | 55 kts | 248° |
| 2026-04-30 12:22 | -6.13895 | 106.65206 | 41 ft | 43 kts | 261° |
| 2026-04-30 12:23 | -6.13854 | 106.65006 | 39 ft | 16 kts | 305° |
| 2026-04-30 12:23 | -6.13802 | 106.64979 | 39 ft | 5 kts | 1° |
| 2026-04-30 12:23 | -6.13763 | 106.64968 | 39 ft | 8 kts | 340° |
| 2026-04-30 12:23 | -6.13671 | 106.64933 | 39 ft | 18 kts | 339° |
| 2026-04-30 12:24 | -6.13553 | 106.64887 | 38 ft | 18 kts | 339° |
| 2026-04-30 12:24 | -6.13435 | 106.64839 | 38 ft | 18 kts | 338° |
| 2026-04-30 12:24 | -6.13320 | 106.64793 | 38 ft | 18 kts | 338° |
| 2026-04-30 12:24 | -6.13205 | 106.64747 | 38 ft | 18 kts | 338° |
| 2026-04-30 12:25 | -6.13097 | 106.64703 | 44 ft | 13 kts | 338° |
| 2026-04-30 12:25 | -6.13040 | 106.64681 | 50 ft | 5 kts | 338° |
| 2026-04-30 12:25 | -6.12996 | 106.64663 | 53 ft | 10 kts | 338° |
| 2026-04-30 12:25 | -6.12906 | 106.64626 | 49 ft | 18 kts | 338° |
| 2026-04-30 12:26 | -6.12762 | 106.64570 | 38 ft | 25 kts | 339° |
| 2026-04-30 12:26 | -6.12601 | 106.64506 | 38 ft | 24 kts | 338° |
| 2026-04-30 12:26 | -6.12444 | 106.64443 | 38 ft | 24 kts | 338° |
| 2026-04-30 12:26 | -6.12285 | 106.64379 | 38 ft | 24 kts | 339° |
| 2026-04-30 12:27 | -6.12145 | 106.64330 | 39 ft | 14 kts | 354° |
| 2026-04-30 12:27 | -6.12108 | 106.64362 | 39 ft | 5 kts | 85° |
| 2026-04-30 12:27 | -6.12087 | 106.64412 | 39 ft | 12 kts | 64° |
| 2026-04-30 12:27 | -6.12047 | 106.64506 | 39 ft | 15 kts | 68° |
| 2026-04-30 12:28 | -6.12009 | 106.64600 | 39 ft | 14 kts | 68° |
| 2026-04-30 12:28 | -6.11973 | 106.64689 | 39 ft | 16 kts | 68° |
| 2026-04-30 12:28 | -6.11929 | 106.64801 | 37 ft | 18 kts | 67° |
| 2026-04-30 12:28 | -6.11883 | 106.64918 | 37 ft | 18 kts | 68° |
| 2026-04-30 12:29 | -6.11899 | 106.65005 | 39 ft | 14 kts | 148° |
| 2026-04-30 12:29 | -6.11964 | 106.65055 | 38 ft | 10 kts | 130° |
| 2026-04-30 12:29 | -6.12006 | 106.65101 | 38 ft | 6 kts | 134° |
| 2026-04-30 12:29 | -6.12016 | 106.65111 | 37 ft | 0 kts | 134° |